sensor_id;sensor_type;location;lat;lon;timestamp;P1;durP1;ratioP1;P2;durP2;ratioP2
8450;SDS011;4262;50.980;13.892;2023-05-07T05:01:13;25.77;;;13.97;;
8450;SDS011;4262;50.980;13.892;2023-05-07T05:03:40;25.90;;;14.30;;
8450;SDS011;4262;50.980;13.892;2023-05-07T05:06:07;27.00;;;13.70;;
8450;SDS011;4262;50.980;13.892;2023-05-07T05:08:36;24.83;;;12.97;;
8450;SDS011;4262;50.980;13.892;2023-05-07T05:11:03;24.63;;;12.80;;
8450;SDS011;4262;50.980;13.892;2023-05-07T05:13:33;30.67;;;15.10;;
8450;SDS011;4262;50.980;13.892;2023-05-07T05:16:05;29.40;;;14.90;;
8450;SDS011;4262;50.980;13.892;2023-05-07T05:18:35;28.00;;;14.50;;
8450;SDS011;4262;50.980;13.892;2023-05-07T05:21:03;26.63;;;14.30;;
8450;SDS011;4262;50.980;13.892;2023-05-07T05:23:31;22.67;;;11.90;;
8450;SDS011;4262;50.980;13.892;2023-05-07T05:25:58;21.13;;;11.27;;
8450;SDS011;4262;50.980;13.892;2023-05-07T05:28:30;24.03;;;11.83;;
8450;SDS011;4262;50.980;13.892;2023-05-07T05:30:57;22.53;;;12.30;;
8450;SDS011;4262;50.980;13.892;2023-05-07T05:33:26;22.53;;;12.13;;
8450;SDS011;4262;50.980;13.892;2023-05-07T05:36:01;23.90;;;12.30;;
8450;SDS011;4262;50.980;13.892;2023-05-07T05:38:29;24.83;;;11.80;;
8450;SDS011;4262;50.980;13.892;2023-05-07T05:40:56;23.10;;;12.27;;
8450;SDS011;4262;50.980;13.892;2023-05-07T05:43:23;25.37;;;12.10;;
8450;SDS011;4262;50.980;13.892;2023-05-07T05:45:50;26.80;;;14.40;;
8450;SDS011;4262;50.980;13.892;2023-05-07T05:48:19;23.00;;;10.70;;
8450;SDS011;4262;50.980;13.892;2023-05-07T05:50:45;19.47;;;10.20;;
8450;SDS011;4262;50.980;13.892;2023-05-07T05:53:16;18.80;;;10.10;;
8450;SDS011;4262;50.980;13.892;2023-05-07T05:55:43;18.27;;;9.73;;
8450;SDS011;4262;50.980;13.892;2023-05-07T05:58:10;18.43;;;10.27;;
8450;SDS011;4262;50.980;13.892;2023-05-07T06:00:42;17.70;;;9.47;;
8450;SDS011;4262;50.980;13.892;2023-05-07T06:03:09;17.90;;;10.37;;
8450;SDS011;4262;50.980;13.892;2023-05-07T06:05:36;17.13;;;8.87;;
8450;SDS011;4262;50.980;13.892;2023-05-07T06:08:04;19.27;;;8.30;;
8450;SDS011;4262;50.980;13.892;2023-05-07T06:10:35;18.30;;;9.50;;
8450;SDS011;4262;50.980;13.892;2023-05-07T06:13:03;19.13;;;9.83;;
8450;SDS011;4262;50.980;13.892;2023-05-07T06:15:31;15.80;;;8.17;;
8450;SDS011;4262;50.980;13.892;2023-05-07T06:18:04;18.23;;;8.40;;
8450;SDS011;4262;50.980;13.892;2023-05-07T06:20:31;15.20;;;8.40;;
8450;SDS011;4262;50.980;13.892;2023-05-07T06:23:00;17.57;;;8.10;;
8450;SDS011;4262;50.980;13.892;2023-05-07T06:25:29;15.60;;;7.40;;
8450;SDS011;4262;50.980;13.892;2023-05-07T06:27:58;12.83;;;7.23;;
8450;SDS011;4262;50.980;13.892;2023-05-07T06:30:26;18.93;;;8.77;;
8450;SDS011;4262;50.980;13.892;2023-05-07T06:32:53;17.20;;;8.53;;
8450;SDS011;4262;50.980;13.892;2023-05-07T06:35:22;16.40;;;9.27;;
8450;SDS011;4262;50.980;13.892;2023-05-07T06:37:50;16.97;;;7.87;;
8450;SDS011;4262;50.980;13.892;2023-05-07T06:40:21;17.87;;;9.73;;
8450;SDS011;4262;50.980;13.892;2023-05-07T06:42:48;15.13;;;8.60;;
8450;SDS011;4262;50.980;13.892;2023-05-07T06:45:28;17.23;;;8.70;;
8450;SDS011;4262;50.980;13.892;2023-05-07T06:47:56;16.80;;;9.10;;
8450;SDS011;4262;50.980;13.892;2023-05-07T06:50:24;15.87;;;8.47;;
8450;SDS011;4262;50.980;13.892;2023-05-07T06:52:55;17.57;;;9.43;;
8450;SDS011;4262;50.980;13.892;2023-05-07T06:55:22;18.03;;;8.97;;
8450;SDS011;4262;50.980;13.892;2023-05-07T06:57:50;17.67;;;9.87;;
8450;SDS011;4262;50.980;13.892;2023-05-07T07:00:18;18.93;;;9.90;;
8450;SDS011;4262;50.980;13.892;2023-05-07T07:02:53;15.97;;;9.60;;
8450;SDS011;4262;50.980;13.892;2023-05-07T07:05:23;18.50;;;10.37;;
8450;SDS011;4262;50.980;13.892;2023-05-07T07:07:52;17.13;;;10.10;;
8450;SDS011;4262;50.980;13.892;2023-05-07T07:10:18;16.87;;;9.67;;
8450;SDS011;4262;50.980;13.892;2023-05-07T07:12:45;19.03;;;10.47;;
8450;SDS011;4262;50.980;13.892;2023-05-07T07:15:12;16.13;;;9.30;;
8450;SDS011;4262;50.980;13.892;2023-05-07T07:17:41;18.57;;;9.43;;
8450;SDS011;4262;50.980;13.892;2023-05-07T07:20:09;17.70;;;10.50;;
8450;SDS011;4262;50.980;13.892;2023-05-07T07:22:37;17.50;;;10.30;;
8450;SDS011;4262;50.980;13.892;2023-05-07T07:25:04;17.53;;;10.30;;
8450;SDS011;4262;50.980;13.892;2023-05-07T07:27:32;20.73;;;11.40;;
8450;SDS011;4262;50.980;13.892;2023-05-07T07:30:00;18.67;;;9.63;;
8450;SDS011;4262;50.980;13.892;2023-05-07T07:32:29;15.80;;;8.60;;
8450;SDS011;4262;50.980;13.892;2023-05-07T07:34:58;24.67;;;11.27;;
8450;SDS011;4262;50.980;13.892;2023-05-07T07:37:28;23.97;;;10.80;;
8450;SDS011;4262;50.980;13.892;2023-05-07T07:39:55;23.40;;;11.50;;
8450;SDS011;4262;50.980;13.892;2023-05-07T07:42:22;27.47;;;13.13;;
8450;SDS011;4262;50.980;13.892;2023-05-07T07:44:49;15.53;;;8.40;;
8450;SDS011;4262;50.980;13.892;2023-05-07T07:47:19;13.97;;;7.97;;
8450;SDS011;4262;50.980;13.892;2023-05-07T07:49:47;16.10;;;8.30;;
8450;SDS011;4262;50.980;13.892;2023-05-07T07:52:14;12.90;;;7.60;;
8450;SDS011;4262;50.980;13.892;2023-05-07T07:54:44;12.33;;;7.33;;
8450;SDS011;4262;50.980;13.892;2023-05-07T07:57:11;10.87;;;5.60;;
8450;SDS011;4262;50.980;13.892;2023-05-07T07:59:38;10.03;;;6.03;;
8450;SDS011;4262;50.980;13.892;2023-05-07T08:02:06;9.90;;;5.33;;
8450;SDS011;4262;50.980;13.892;2023-05-07T08:04:33;11.03;;;5.90;;
8450;SDS011;4262;50.980;13.892;2023-05-07T08:07:03;9.70;;;5.57;;
8450;SDS011;4262;50.980;13.892;2023-05-07T08:09:34;10.63;;;6.07;;
8450;SDS011;4262;50.980;13.892;2023-05-07T08:12:04;11.10;;;6.03;;
8450;SDS011;4262;50.980;13.892;2023-05-07T08:14:32;9.50;;;5.30;;
8450;SDS011;4262;50.980;13.892;2023-05-07T08:17:00;10.23;;;5.60;;
8450;SDS011;4262;50.980;13.892;2023-05-07T08:19:27;10.63;;;5.80;;
8450;SDS011;4262;50.980;13.892;2023-05-07T08:21:54;10.17;;;6.17;;
8450;SDS011;4262;50.980;13.892;2023-05-07T08:24:23;9.57;;;5.50;;
8450;SDS011;4262;50.980;13.892;2023-05-07T08:26:49;10.57;;;5.67;;
8450;SDS011;4262;50.980;13.892;2023-05-07T08:29:18;12.20;;;5.37;;
8450;SDS011;4262;50.980;13.892;2023-05-07T08:31:45;10.63;;;5.47;;
8450;SDS011;4262;50.980;13.892;2023-05-07T08:34:13;13.60;;;6.10;;
8450;SDS011;4262;50.980;13.892;2023-05-07T08:36:43;9.90;;;5.80;;
8450;SDS011;4262;50.980;13.892;2023-05-07T08:39:16;10.17;;;6.13;;
8450;SDS011;4262;50.980;13.892;2023-05-07T08:41:45;11.27;;;5.93;;
8450;SDS011;4262;50.980;13.892;2023-05-07T08:44:15;11.53;;;7.13;;
8450;SDS011;4262;50.980;13.892;2023-05-07T08:46:48;11.93;;;7.40;;
8450;SDS011;4262;50.980;13.892;2023-05-07T08:49:22;13.00;;;7.60;;
8450;SDS011;4262;50.980;13.892;2023-05-07T08:51:50;12.93;;;7.10;;
8450;SDS011;4262;50.980;13.892;2023-05-07T08:54:18;12.10;;;7.50;;
8450;SDS011;4262;50.980;13.892;2023-05-07T08:56:47;12.20;;;6.30;;
8450;SDS011;4262;50.980;13.892;2023-05-07T08:59:17;11.90;;;6.50;;
8450;SDS011;4262;50.980;13.892;2023-05-07T09:01:44;12.17;;;7.53;;
8450;SDS011;4262;50.980;13.892;2023-05-07T09:04:12;12.43;;;7.10;;
8450;SDS011;4262;50.980;13.892;2023-05-07T09:06:40;13.10;;;7.00;;
8450;SDS011;4262;50.980;13.892;2023-05-07T09:09:13;12.53;;;7.53;;
8450;SDS011;4262;50.980;13.892;2023-05-07T09:11:41;13.70;;;7.10;;
8450;SDS011;4262;50.980;13.892;2023-05-07T09:14:08;14.30;;;7.10;;
8450;SDS011;4262;50.980;13.892;2023-05-07T09:16:39;12.50;;;7.20;;
8450;SDS011;4262;50.980;13.892;2023-05-07T09:19:07;14.63;;;7.93;;
8450;SDS011;4262;50.980;13.892;2023-05-07T09:21:36;12.70;;;7.07;;
8450;SDS011;4262;50.980;13.892;2023-05-07T09:24:07;12.40;;;7.97;;
8450;SDS011;4262;50.980;13.892;2023-05-07T09:26:38;11.50;;;6.80;;
8450;SDS011;4262;50.980;13.892;2023-05-07T09:29:07;13.40;;;7.10;;
8450;SDS011;4262;50.980;13.892;2023-05-07T09:31:36;13.73;;;8.37;;
8450;SDS011;4262;50.980;13.892;2023-05-07T09:34:05;14.33;;;8.30;;
8450;SDS011;4262;50.980;13.892;2023-05-07T09:36:55;13.13;;;7.83;;
8450;SDS011;4262;50.980;13.892;2023-05-07T09:39:43;14.97;;;8.43;;
8450;SDS011;4262;50.980;13.892;2023-05-07T09:42:13;13.40;;;7.33;;
8450;SDS011;4262;50.980;13.892;2023-05-07T09:44:41;13.60;;;8.40;;
8450;SDS011;4262;50.980;13.892;2023-05-07T09:47:16;11.83;;;6.57;;
8450;SDS011;4262;50.980;13.892;2023-05-07T09:49:49;14.10;;;7.70;;
8450;SDS011;4262;50.980;13.892;2023-05-07T09:52:20;13.37;;;7.07;;
8450;SDS011;4262;50.980;13.892;2023-05-07T09:54:52;11.67;;;6.90;;
8450;SDS011;4262;50.980;13.892;2023-05-07T09:57:22;12.57;;;6.50;;
8450;SDS011;4262;50.980;13.892;2023-05-07T09:59:55;12.60;;;6.43;;
8450;SDS011;4262;50.980;13.892;2023-05-07T10:02:23;14.30;;;8.23;;
8450;SDS011;4262;50.980;13.892;2023-05-07T10:04:54;11.33;;;6.50;;
8450;SDS011;4262;50.980;13.892;2023-05-07T10:07:28;12.53;;;7.53;;
8450;SDS011;4262;50.980;13.892;2023-05-07T10:10:01;12.83;;;7.77;;
8450;SDS011;4262;50.980;13.892;2023-05-07T10:12:34;10.77;;;5.83;;
8450;SDS011;4262;50.980;13.892;2023-05-07T10:15:10;11.67;;;6.73;;
8450;SDS011;4262;50.980;13.892;2023-05-07T10:17:42;11.40;;;6.53;;
8450;SDS011;4262;50.980;13.892;2023-05-07T10:20:10;12.83;;;7.17;;
8450;SDS011;4262;50.980;13.892;2023-05-07T10:22:42;13.50;;;6.20;;
8450;SDS011;4262;50.980;13.892;2023-05-07T10:25:16;11.03;;;6.70;;
8450;SDS011;4262;50.980;13.892;2023-05-07T10:27:47;12.00;;;6.90;;
8450;SDS011;4262;50.980;13.892;2023-05-07T10:30:38;12.80;;;7.43;;
8450;SDS011;4262;50.980;13.892;2023-05-07T10:33:16;12.60;;;7.50;;
8450;SDS011;4262;50.980;13.892;2023-05-07T10:35:48;13.10;;;7.53;;
8450;SDS011;4262;50.980;13.892;2023-05-07T10:38:18;12.50;;;7.60;;
8450;SDS011;4262;50.980;13.892;2023-05-07T10:40:46;18.03;;;7.83;;
8450;SDS011;4262;50.980;13.892;2023-05-07T10:43:13;13.27;;;8.23;;
8450;SDS011;4262;50.980;13.892;2023-05-07T10:51:42;14.20;;;8.77;;
8450;SDS011;4262;50.980;13.892;2023-05-07T10:54:26;15.13;;;7.93;;
8450;SDS011;4262;50.980;13.892;2023-05-07T11:03:17;14.33;;;7.70;;
8450;SDS011;4262;50.980;13.892;2023-05-07T11:08:54;11.53;;;7.60;;
8450;SDS011;4262;50.980;13.892;2023-05-07T11:11:46;12.40;;;7.33;;
8450;SDS011;4262;50.980;13.892;2023-05-07T11:17:15;13.10;;;7.70;;
8450;SDS011;4262;50.980;13.892;2023-05-07T11:19:47;12.20;;;7.73;;
8450;SDS011;4262;50.980;13.892;2023-05-07T11:25:27;12.63;;;7.67;;
8450;SDS011;4262;50.980;13.892;2023-05-07T11:28:06;13.63;;;8.30;;
8450;SDS011;4262;50.980;13.892;2023-05-07T11:30:36;12.87;;;6.80;;
8450;SDS011;4262;50.980;13.892;2023-05-07T11:33:08;17.10;;;7.77;;
8450;SDS011;4262;50.980;13.892;2023-05-07T11:35:37;12.40;;;7.70;;
8450;SDS011;4262;50.980;13.892;2023-05-07T11:38:07;13.63;;;7.90;;
8450;SDS011;4262;50.980;13.892;2023-05-07T11:40:35;14.57;;;7.53;;
8450;SDS011;4262;50.980;13.892;2023-05-07T11:43:16;14.40;;;7.50;;
8450;SDS011;4262;50.980;13.892;2023-05-07T11:45:44;10.77;;;6.70;;
8450;SDS011;4262;50.980;13.892;2023-05-07T11:48:12;11.97;;;7.37;;
8450;SDS011;4262;50.980;13.892;2023-05-07T11:50:49;10.70;;;6.60;;
8450;SDS011;4262;50.980;13.892;2023-05-07T11:53:17;13.00;;;7.50;;
8450;SDS011;4262;50.980;13.892;2023-05-07T11:55:44;12.50;;;7.07;;
8450;SDS011;4262;50.980;13.892;2023-05-07T11:58:11;12.07;;;6.80;;
8450;SDS011;4262;50.980;13.892;2023-05-07T12:00:49;13.83;;;7.40;;
8450;SDS011;4262;50.980;13.892;2023-05-07T12:03:16;18.30;;;7.20;;
8450;SDS011;4262;50.980;13.892;2023-05-07T12:05:43;14.73;;;6.60;;
8450;SDS011;4262;50.980;13.892;2023-05-07T12:08:13;13.20;;;7.10;;
8450;SDS011;4262;50.980;13.892;2023-05-07T12:10:41;11.80;;;6.60;;
8450;SDS011;4262;50.980;13.892;2023-05-07T12:13:13;10.90;;;6.70;;
8450;SDS011;4262;50.980;13.892;2023-05-07T12:15:41;15.40;;;7.23;;
8450;SDS011;4262;50.980;13.892;2023-05-07T12:18:09;11.33;;;6.50;;
8450;SDS011;4262;50.980;13.892;2023-05-07T12:20:38;14.87;;;7.63;;
8450;SDS011;4262;50.980;13.892;2023-05-07T12:23:06;13.60;;;7.43;;
8450;SDS011;4262;50.980;13.892;2023-05-07T12:25:34;12.90;;;7.60;;
8450;SDS011;4262;50.980;13.892;2023-05-07T12:28:01;12.10;;;7.20;;
8450;SDS011;4262;50.980;13.892;2023-05-07T12:30:31;13.10;;;8.27;;
8450;SDS011;4262;50.980;13.892;2023-05-07T12:32:58;12.80;;;7.70;;
8450;SDS011;4262;50.980;13.892;2023-05-07T12:35:29;11.37;;;7.10;;
8450;SDS011;4262;50.980;13.892;2023-05-07T12:37:57;12.43;;;7.67;;
8450;SDS011;4262;50.980;13.892;2023-05-07T12:40:35;10.50;;;5.50;;
8450;SDS011;4262;50.980;13.892;2023-05-07T12:43:03;13.33;;;6.93;;
8450;SDS011;4262;50.980;13.892;2023-05-07T12:45:30;13.77;;;7.50;;
8450;SDS011;4262;50.980;13.892;2023-05-07T12:48:00;14.00;;;7.73;;
8450;SDS011;4262;50.980;13.892;2023-05-07T12:50:31;11.73;;;7.20;;
8450;SDS011;4262;50.980;13.892;2023-05-07T12:52:59;16.03;;;8.10;;
8450;SDS011;4262;50.980;13.892;2023-05-07T12:55:28;15.30;;;8.10;;
8450;SDS011;4262;50.980;13.892;2023-05-07T12:57:55;15.43;;;6.73;;
8450;SDS011;4262;50.980;13.892;2023-05-07T13:00:33;14.80;;;7.23;;
8450;SDS011;4262;50.980;13.892;2023-05-07T13:03:01;17.63;;;7.70;;
8450;SDS011;4262;50.980;13.892;2023-05-07T13:05:28;11.17;;;6.70;;
8450;SDS011;4262;50.980;13.892;2023-05-07T13:07:56;11.40;;;6.73;;
8450;SDS011;4262;50.980;13.892;2023-05-07T13:10:25;11.47;;;7.57;;
8450;SDS011;4262;50.980;13.892;2023-05-07T13:12:53;11.30;;;6.33;;
8450;SDS011;4262;50.980;13.892;2023-05-07T13:15:19;11.60;;;6.87;;
8450;SDS011;4262;50.980;13.892;2023-05-07T13:17:47;12.57;;;7.73;;
8450;SDS011;4262;50.980;13.892;2023-05-07T13:20:15;11.40;;;6.90;;
8450;SDS011;4262;50.980;13.892;2023-05-07T13:22:42;11.40;;;7.60;;
8450;SDS011;4262;50.980;13.892;2023-05-07T13:25:10;13.97;;;7.73;;
8450;SDS011;4262;50.980;13.892;2023-05-07T13:27:37;12.03;;;7.40;;
8450;SDS011;4262;50.980;13.892;2023-05-07T13:30:04;14.10;;;6.90;;
8450;SDS011;4262;50.980;13.892;2023-05-07T13:32:31;11.70;;;7.40;;
8450;SDS011;4262;50.980;13.892;2023-05-07T13:34:58;10.73;;;6.07;;
8450;SDS011;4262;50.980;13.892;2023-05-07T13:37:25;13.00;;;7.27;;
8450;SDS011;4262;50.980;13.892;2023-05-07T13:39:52;12.03;;;6.40;;
8450;SDS011;4262;50.980;13.892;2023-05-07T13:42:21;15.10;;;5.83;;
8450;SDS011;4262;50.980;13.892;2023-05-07T13:44:48;11.10;;;5.77;;
8450;SDS011;4262;50.980;13.892;2023-05-07T13:47:15;15.93;;;6.50;;
8450;SDS011;4262;50.980;13.892;2023-05-07T13:49:43;10.77;;;5.80;;
8450;SDS011;4262;50.980;13.892;2023-05-07T13:52:09;10.40;;;6.40;;
8450;SDS011;4262;50.980;13.892;2023-05-07T13:54:36;11.77;;;5.83;;
8450;SDS011;4262;50.980;13.892;2023-05-07T13:57:04;11.33;;;6.50;;
8450;SDS011;4262;50.980;13.892;2023-05-07T13:59:31;11.20;;;6.87;;
8450;SDS011;4262;50.980;13.892;2023-05-07T14:01:58;11.33;;;5.80;;
8450;SDS011;4262;50.980;13.892;2023-05-07T14:04:25;9.83;;;6.00;;
8450;SDS011;4262;50.980;13.892;2023-05-07T14:06:52;10.13;;;5.70;;
8450;SDS011;4262;50.980;13.892;2023-05-07T14:09:18;9.07;;;4.90;;
8450;SDS011;4262;50.980;13.892;2023-05-07T14:11:45;9.77;;;4.77;;
8450;SDS011;4262;50.980;13.892;2023-05-07T14:14:13;9.67;;;5.17;;
8450;SDS011;4262;50.980;13.892;2023-05-07T14:16:41;10.77;;;4.70;;
8450;SDS011;4262;50.980;13.892;2023-05-07T14:19:08;10.57;;;4.50;;
8450;SDS011;4262;50.980;13.892;2023-05-07T14:21:35;10.03;;;4.93;;
8450;SDS011;4262;50.980;13.892;2023-05-07T14:24:01;9.70;;;4.83;;
8450;SDS011;4262;50.980;13.892;2023-05-07T14:26:28;9.60;;;4.90;;
8450;SDS011;4262;50.980;13.892;2023-05-07T14:28:56;8.70;;;4.80;;
8450;SDS011;4262;50.980;13.892;2023-05-07T14:31:23;8.10;;;4.27;;
8450;SDS011;4262;50.980;13.892;2023-05-07T14:33:52;10.00;;;5.47;;
8450;SDS011;4262;50.980;13.892;2023-05-07T14:36:19;9.50;;;4.53;;
8450;SDS011;4262;50.980;13.892;2023-05-07T14:38:48;8.70;;;4.63;;
8450;SDS011;4262;50.980;13.892;2023-05-07T14:41:16;8.40;;;4.47;;
8450;SDS011;4262;50.980;13.892;2023-05-07T14:43:43;8.30;;;4.40;;
8450;SDS011;4262;50.980;13.892;2023-05-07T14:46:15;9.23;;;4.93;;
8450;SDS011;4262;50.980;13.892;2023-05-07T14:48:43;12.17;;;5.33;;
8450;SDS011;4262;50.980;13.892;2023-05-07T14:51:13;9.37;;;4.90;;
8450;SDS011;4262;50.980;13.892;2023-05-07T14:53:40;11.90;;;5.27;;
8450;SDS011;4262;50.980;13.892;2023-05-07T14:56:07;10.50;;;4.83;;
8450;SDS011;4262;50.980;13.892;2023-05-07T14:58:34;11.43;;;6.43;;
8450;SDS011;4262;50.980;13.892;2023-05-07T15:01:03;8.60;;;5.00;;
8450;SDS011;4262;50.980;13.892;2023-05-07T15:03:29;10.03;;;5.40;;
8450;SDS011;4262;50.980;13.892;2023-05-07T15:06:18;11.50;;;6.17;;
8450;SDS011;4262;50.980;13.892;2023-05-07T15:08:44;9.10;;;4.60;;
8450;SDS011;4262;50.980;13.892;2023-05-07T15:11:13;14.17;;;5.63;;
8450;SDS011;4262;50.980;13.892;2023-05-07T15:13:41;10.00;;;5.23;;
8450;SDS011;4262;50.980;13.892;2023-05-07T15:16:08;11.70;;;6.27;;
8450;SDS011;4262;50.980;13.892;2023-05-07T15:18:35;10.67;;;5.80;;
8450;SDS011;4262;50.980;13.892;2023-05-07T15:21:04;11.03;;;6.80;;
8450;SDS011;4262;50.980;13.892;2023-05-07T15:23:33;12.03;;;5.20;;
8450;SDS011;4262;50.980;13.892;2023-05-07T15:26:00;13.93;;;6.93;;
8450;SDS011;4262;50.980;13.892;2023-05-07T15:28:27;11.90;;;6.87;;
8450;SDS011;4262;50.980;13.892;2023-05-07T15:30:58;10.90;;;6.27;;
8450;SDS011;4262;50.980;13.892;2023-05-07T15:33:25;9.30;;;5.17;;
8450;SDS011;4262;50.980;13.892;2023-05-07T15:35:51;11.70;;;6.37;;
8450;SDS011;4262;50.980;13.892;2023-05-07T15:38:18;9.40;;;5.10;;
8450;SDS011;4262;50.980;13.892;2023-05-07T15:40:48;10.90;;;6.43;;
8450;SDS011;4262;50.980;13.892;2023-05-07T15:43:15;10.63;;;6.10;;
8450;SDS011;4262;50.980;13.892;2023-05-07T15:45:42;9.80;;;5.77;;
8450;SDS011;4262;50.980;13.892;2023-05-07T15:48:09;10.47;;;6.17;;
8450;SDS011;4262;50.980;13.892;2023-05-07T15:50:38;14.57;;;6.67;;
8450;SDS011;4262;50.980;13.892;2023-05-07T15:53:05;10.40;;;6.03;;
8450;SDS011;4262;50.980;13.892;2023-05-07T15:55:32;11.90;;;6.33;;
8450;SDS011;4262;50.980;13.892;2023-05-07T15:58:00;12.33;;;5.50;;
8450;SDS011;4262;50.980;13.892;2023-05-07T16:00:28;11.77;;;6.77;;
8450;SDS011;4262;50.980;13.892;2023-05-07T16:02:54;9.93;;;5.70;;
8450;SDS011;4262;50.980;13.892;2023-05-07T16:05:21;11.47;;;7.17;;
8450;SDS011;4262;50.980;13.892;2023-05-07T16:07:48;11.00;;;6.80;;
8450;SDS011;4262;50.980;13.892;2023-05-07T16:10:17;11.53;;;7.27;;
8450;SDS011;4262;50.980;13.892;2023-05-07T16:12:44;12.63;;;7.60;;
8450;SDS011;4262;50.980;13.892;2023-05-07T16:15:12;13.43;;;6.43;;
8450;SDS011;4262;50.980;13.892;2023-05-07T16:17:39;10.80;;;6.70;;
8450;SDS011;4262;50.980;13.892;2023-05-07T16:20:07;10.93;;;6.80;;
8450;SDS011;4262;50.980;13.892;2023-05-07T16:22:37;13.40;;;8.00;;
8450;SDS011;4262;50.980;13.892;2023-05-07T16:25:03;12.70;;;7.30;;
8450;SDS011;4262;50.980;13.892;2023-05-07T16:27:30;12.43;;;7.07;;
8450;SDS011;4262;50.980;13.892;2023-05-07T16:29:57;12.80;;;6.63;;
8450;SDS011;4262;50.980;13.892;2023-05-07T16:32:25;18.23;;;6.60;;
8450;SDS011;4262;50.980;13.892;2023-05-07T16:34:53;12.50;;;7.07;;
8450;SDS011;4262;50.980;13.892;2023-05-07T16:37:21;12.00;;;6.80;;
8450;SDS011;4262;50.980;13.892;2023-05-07T16:39:48;15.43;;;6.83;;
8450;SDS011;4262;50.980;13.892;2023-05-07T16:42:15;13.00;;;7.20;;
8450;SDS011;4262;50.980;13.892;2023-05-07T16:44:41;12.93;;;6.83;;
8450;SDS011;4262;50.980;13.892;2023-05-07T16:47:08;11.40;;;6.80;;
8450;SDS011;4262;50.980;13.892;2023-05-07T16:49:35;12.20;;;6.90;;
8450;SDS011;4262;50.980;13.892;2023-05-07T16:52:02;12.07;;;7.10;;
8450;SDS011;4262;50.980;13.892;2023-05-07T16:54:30;12.10;;;6.73;;
8450;SDS011;4262;50.980;13.892;2023-05-07T16:56:56;11.63;;;6.57;;
8450;SDS011;4262;50.980;13.892;2023-05-07T16:59:23;14.93;;;6.37;;
8450;SDS011;4262;50.980;13.892;2023-05-07T17:01:50;16.13;;;6.67;;
8450;SDS011;4262;50.980;13.892;2023-05-07T17:04:17;11.83;;;6.27;;
8450;SDS011;4262;50.980;13.892;2023-05-07T17:06:45;14.83;;;7.23;;
8450;SDS011;4262;50.980;13.892;2023-05-07T17:09:12;12.70;;;6.80;;
8450;SDS011;4262;50.980;13.892;2023-05-07T17:11:39;15.90;;;6.47;;
8450;SDS011;4262;50.980;13.892;2023-05-07T17:14:05;13.40;;;7.20;;
8450;SDS011;4262;50.980;13.892;2023-05-07T17:16:32;11.00;;;6.53;;
8450;SDS011;4262;50.980;13.892;2023-05-07T17:18:59;12.60;;;6.90;;
8450;SDS011;4262;50.980;13.892;2023-05-07T17:21:25;11.70;;;7.50;;
8450;SDS011;4262;50.980;13.892;2023-05-07T17:23:53;11.40;;;7.20;;
8450;SDS011;4262;50.980;13.892;2023-05-07T17:26:20;12.70;;;7.90;;
8450;SDS011;4262;50.980;13.892;2023-05-07T17:28:47;13.77;;;7.87;;
8450;SDS011;4262;50.980;13.892;2023-05-07T17:31:14;13.00;;;7.40;;
8450;SDS011;4262;50.980;13.892;2023-05-07T17:33:40;14.60;;;8.37;;
8450;SDS011;4262;50.980;13.892;2023-05-07T17:36:07;15.70;;;7.20;;
8450;SDS011;4262;50.980;13.892;2023-05-07T17:38:33;12.70;;;7.87;;
8450;SDS011;4262;50.980;13.892;2023-05-07T17:41:02;11.90;;;6.80;;
8450;SDS011;4262;50.980;13.892;2023-05-07T17:43:29;12.57;;;7.57;;
8450;SDS011;4262;50.980;13.892;2023-05-07T17:45:55;13.30;;;7.97;;
8450;SDS011;4262;50.980;13.892;2023-05-07T17:48:22;12.43;;;7.47;;
8450;SDS011;4262;50.980;13.892;2023-05-07T17:50:49;14.70;;;7.70;;
8450;SDS011;4262;50.980;13.892;2023-05-07T17:53:16;39.47;;;8.07;;
8450;SDS011;4262;50.980;13.892;2023-05-07T17:55:43;13.90;;;8.70;;
8450;SDS011;4262;50.980;13.892;2023-05-07T17:58:12;13.77;;;7.60;;
8450;SDS011;4262;50.980;13.892;2023-05-07T18:00:40;15.30;;;8.70;;
8450;SDS011;4262;50.980;13.892;2023-05-07T18:03:06;14.70;;;8.17;;
8450;SDS011;4262;50.980;13.892;2023-05-07T18:05:34;12.63;;;7.63;;
8450;SDS011;4262;50.980;13.892;2023-05-07T18:08:02;13.57;;;8.47;;
8450;SDS011;4262;50.980;13.892;2023-05-07T18:10:29;14.00;;;8.20;;
8450;SDS011;4262;50.980;13.892;2023-05-07T18:12:55;16.53;;;10.00;;
8450;SDS011;4262;50.980;13.892;2023-05-07T18:15:23;17.43;;;8.87;;
8450;SDS011;4262;50.980;13.892;2023-05-07T18:17:50;13.83;;;9.37;;
8450;SDS011;4262;50.980;13.892;2023-05-07T18:20:17;17.13;;;8.60;;
8450;SDS011;4262;50.980;13.892;2023-05-07T18:22:46;13.87;;;8.47;;
8450;SDS011;4262;50.980;13.892;2023-05-07T18:25:12;19.03;;;9.37;;
8450;SDS011;4262;50.980;13.892;2023-05-07T18:27:39;14.77;;;9.70;;
8450;SDS011;4262;50.980;13.892;2023-05-07T18:30:06;14.07;;;8.73;;
8450;SDS011;4262;50.980;13.892;2023-05-07T18:32:35;16.17;;;9.77;;
8450;SDS011;4262;50.980;13.892;2023-05-07T18:35:02;13.50;;;8.77;;
8450;SDS011;4262;50.980;13.892;2023-05-07T18:37:28;12.83;;;8.37;;
8450;SDS011;4262;50.980;13.892;2023-05-07T18:39:56;13.90;;;8.83;;
8450;SDS011;4262;50.980;13.892;2023-05-07T18:42:27;17.27;;;9.10;;
8450;SDS011;4262;50.980;13.892;2023-05-07T18:44:54;13.40;;;8.50;;
8450;SDS011;4262;50.980;13.892;2023-05-07T18:47:21;16.90;;;9.30;;
8450;SDS011;4262;50.980;13.892;2023-05-07T18:49:49;16.90;;;8.53;;
8450;SDS011;4262;50.980;13.892;2023-05-07T18:52:18;15.00;;;9.37;;
8450;SDS011;4262;50.980;13.892;2023-05-07T18:54:46;13.90;;;8.63;;
8450;SDS011;4262;50.980;13.892;2023-05-07T18:57:13;13.57;;;8.37;;
8450;SDS011;4262;50.980;13.892;2023-05-07T18:59:41;13.17;;;9.00;;
8450;SDS011;4262;50.980;13.892;2023-05-07T19:02:07;13.87;;;8.80;;
8450;SDS011;4262;50.980;13.892;2023-05-07T19:04:34;13.57;;;8.90;;
8450;SDS011;4262;50.980;13.892;2023-05-07T19:07:02;14.73;;;8.97;;
8450;SDS011;4262;50.980;13.892;2023-05-07T19:09:29;15.93;;;9.80;;
8450;SDS011;4262;50.980;13.892;2023-05-07T19:11:56;14.33;;;8.20;;
8450;SDS011;4262;50.980;13.892;2023-05-07T19:14:23;16.67;;;8.33;;
8450;SDS011;4262;50.980;13.892;2023-05-07T19:16:50;14.60;;;9.60;;
8450;SDS011;4262;50.980;13.892;2023-05-07T19:19:17;13.67;;;8.60;;
8450;SDS011;4262;50.980;13.892;2023-05-07T19:21:45;17.90;;;9.10;;
8450;SDS011;4262;50.980;13.892;2023-05-07T19:24:13;20.37;;;9.77;;
8450;SDS011;4262;50.980;13.892;2023-05-07T19:26:40;16.30;;;10.50;;
8450;SDS011;4262;50.980;13.892;2023-05-07T19:29:07;18.40;;;10.20;;
8450;SDS011;4262;50.980;13.892;2023-05-07T19:31:35;15.70;;;10.10;;
8450;SDS011;4262;50.980;13.892;2023-05-07T19:34:02;15.83;;;10.00;;
8450;SDS011;4262;50.980;13.892;2023-05-07T19:36:29;16.33;;;10.60;;
8450;SDS011;4262;50.980;13.892;2023-05-07T19:38:58;16.30;;;10.63;;
8450;SDS011;4262;50.980;13.892;2023-05-07T19:41:28;17.90;;;10.07;;
8450;SDS011;4262;50.980;13.892;2023-05-07T19:43:54;16.70;;;9.67;;
8450;SDS011;4262;50.980;13.892;2023-05-07T19:46:21;17.70;;;10.67;;
8450;SDS011;4262;50.980;13.892;2023-05-07T19:48:48;17.40;;;10.40;;
8450;SDS011;4262;50.980;13.892;2023-05-07T19:51:18;16.47;;;9.90;;
8450;SDS011;4262;50.980;13.892;2023-05-07T19:53:45;17.07;;;10.90;;
8450;SDS011;4262;50.980;13.892;2023-05-07T19:56:11;17.37;;;10.23;;
8450;SDS011;4262;50.980;13.892;2023-05-07T19:58:40;14.03;;;9.77;;
8450;SDS011;4262;50.980;13.892;2023-05-07T20:01:06;15.60;;;9.60;;
8450;SDS011;4262;50.980;13.892;2023-05-07T20:03:34;16.37;;;9.70;;
8450;SDS011;4262;50.980;13.892;2023-05-07T20:06:00;18.90;;;10.70;;
8450;SDS011;4262;50.980;13.892;2023-05-07T20:08:27;19.37;;;9.90;;
8450;SDS011;4262;50.980;13.892;2023-05-07T20:10:55;15.97;;;10.20;;
8450;SDS011;4262;50.980;13.892;2023-05-07T20:13:23;16.90;;;9.53;;
8450;SDS011;4262;50.980;13.892;2023-05-07T20:15:55;15.10;;;10.27;;
8450;SDS011;4262;50.980;13.892;2023-05-07T20:18:22;14.23;;;9.43;;